createdAt,value
2024-03-01T00:00:28.209Z,100199.25
2024-03-01T00:02:54.822Z,100196.06
2024-03-01T00:05:21.661Z,100196.56
2024-03-01T00:07:48.233Z,100192.94
2024-03-01T00:10:14.878Z,100191.34
2024-03-01T00:12:41.482Z,100196.72
2024-03-01T00:15:09.033Z,100180.03
2024-03-01T00:17:35.972Z,100193.88
2024-03-01T00:20:02.928Z,100190.44
2024-03-01T00:22:29.427Z,100192.94
2024-03-01T00:24:56.241Z,100189.31
2024-03-01T00:27:22.694Z,100188.19
2024-03-01T00:29:49.285Z,100183.47
2024-03-01T00:32:15.758Z,100181.91
2024-03-01T00:34:42.247Z,100178.78
2024-03-01T00:37:08.744Z,100183.47
2024-03-01T00:39:35.407Z,100182.84
2024-03-01T00:42:01.910Z,100177.19
2024-03-01T00:44:28.358Z,100178.13
2024-03-01T00:46:55.397Z,100176.53
2024-03-01T00:49:21.902Z,100164.56
2024-03-01T00:51:48.497Z,100174.97
2024-03-01T00:54:14.950Z,100169.91
2024-03-01T00:56:41.534Z,100165.81
2024-03-01T00:59:08.210Z,100161.41
2024-03-01T01:01:34.811Z,100164.25
2024-03-01T01:04:01.909Z,100156.38
2024-03-01T01:06:28.405Z,100155.13
2024-03-01T01:08:54.931Z,100145.66
2024-03-01T01:11:21.495Z,100152.75
2024-03-01T01:13:48.061Z,100156.06
2024-03-01T01:16:14.534Z,100143.13
2024-03-01T01:18:40.996Z,100143.59
2024-03-01T01:21:07.575Z,100142.81
2024-03-01T01:23:34.036Z,100133.69
2024-03-01T01:26:00.540Z,100134.47
2024-03-01T01:28:27.039Z,100137.00
2024-03-01T01:30:53.732Z,100137.94
2024-03-01T01:33:20.275Z,100129.91
2024-03-01T01:35:47.228Z,100131.47
2024-03-01T01:38:13.736Z,100133.53
2024-03-01T01:40:41.689Z,100126.44
2024-03-01T01:43:09.111Z,100124.06
2024-03-01T01:45:35.684Z,100126.13
2024-03-01T01:48:06.043Z,100112.59
2024-03-01T01:50:34.076Z,100118.88
2024-03-01T01:53:09.933Z,100111.00
2024-03-01T01:55:44.577Z,100111.00
2024-03-01T01:58:11.684Z,100103.75
2024-03-01T02:00:39.481Z,100108.63
2024-03-01T02:03:06.092Z,100094.16
2024-03-01T02:05:33.056Z,100098.22
2024-03-01T02:07:59.587Z,100094.16
2024-03-01T02:10:26.182Z,100098.69
2024-03-01T02:13:02.233Z,100092.09
2024-03-01T02:15:30.239Z,100097.63
2024-03-01T02:17:58.346Z,100082.34
2024-03-01T02:20:27.825Z,100079.19
2024-03-01T02:22:58.883Z,100086.88
2024-03-01T02:25:25.500Z,100083.28
2024-03-01T02:27:52.157Z,100069.56
2024-03-01T02:30:18.897Z,100073.69
2024-03-01T02:32:45.447Z,100063.41
2024-03-01T02:35:11.930Z,100070.50
2024-03-01T02:37:38.970Z,100068.47
2024-03-01T02:40:06.203Z,100068.97
2024-03-01T02:42:33.976Z,100061.69
2024-03-01T02:45:02.432Z,100057.75
2024-03-01T02:47:28.964Z,100053.38
2024-03-01T02:49:55.475Z,100051.78
2024-03-01T02:52:22.075Z,100053.38
2024-03-01T02:54:48.855Z,100049.09
2024-03-01T02:57:15.476Z,100049.88
2024-03-01T02:59:42.137Z,100046.28
2024-03-01T03:02:08.623Z,100042.66
2024-03-01T03:04:35.172Z,100037.94
2024-03-01T03:07:06.065Z,100036.03
2024-03-01T03:09:36.589Z,100048.94
2024-03-01T03:12:03.205Z,100041.38
2024-03-01T03:14:29.998Z,100032.56
2024-03-01T03:16:56.460Z,100036.16
2024-03-01T03:19:23.024Z,100040.59
2024-03-01T03:21:49.640Z,100030.97
2024-03-01T03:24:16.178Z,100026.59
2024-03-01T03:26:42.665Z,100025.31
2024-03-01T03:29:09.172Z,100033.50
2024-03-01T03:31:35.725Z,100031.13
2024-03-01T03:34:02.435Z,100027.06
2024-03-01T03:36:28.965Z,100024.38
2024-03-01T03:38:55.545Z,100038.06
2024-03-01T03:41:22.256Z,100023.72
2024-03-01T03:43:48.806Z,100049.88
2024-03-01T03:46:15.434Z,100034.75
2024-03-01T03:48:41.966Z,100041.84
2024-03-01T03:51:08.500Z,100033.00
2024-03-01T03:53:34.951Z,100046.72
2024-03-01T03:56:01.421Z,100049.22
2024-03-01T03:58:27.925Z,100050.47
2024-03-01T04:00:54.468Z,100053.31
2024-03-01T04:03:21.034Z,100044.03
2024-03-01T04:05:47.499Z,100046.09
2024-03-01T04:08:14.021Z,100046.72
2024-03-01T04:10:40.748Z,100050.31
2024-03-01T04:13:09.238Z,100041.06
2024-03-01T04:15:35.875Z,100033.50
2024-03-01T04:18:03.680Z,100045.44
2024-03-01T04:20:30.301Z,100039.47
2024-03-01T04:22:56.813Z,100035.84
2024-03-01T04:25:25.138Z,100033.50
2024-03-01T04:27:51.919Z,100023.56
2024-03-01T04:30:18.898Z,100022.63
2024-03-01T04:32:45.395Z,100035.97
2024-03-01T04:35:13.748Z,100025.94
2024-03-01T04:37:40.320Z,100025.63
2024-03-01T04:40:08.921Z,100023.56
2024-03-01T04:42:37.617Z,100019.97
2024-03-01T04:45:08.189Z,100017.69
2024-03-01T04:47:34.768Z,100031.38
2024-03-01T04:50:01.270Z,100026.53
2024-03-01T04:52:27.806Z,100024.63
2024-03-01T04:54:54.504Z,100018.16
2024-03-01T04:57:20.958Z,100021.78
2024-03-01T04:59:47.458Z,100017.84
2024-03-01T05:02:13.913Z,100012.03
2024-03-01T05:04:43.435Z,100015.47
2024-03-01T05:07:11.217Z,100014.69
2024-03-01T05:09:39.612Z,100018.00
2024-03-01T05:12:06.670Z,100019.09
2024-03-01T05:14:33.393Z,100019.59
2024-03-01T05:16:59.816Z,100023.66
2024-03-01T05:19:26.729Z,100012.34
2024-03-01T05:21:53.412Z,100007.91
2024-03-01T05:24:19.911Z,100001.63
2024-03-01T05:26:46.436Z,100004.47
2024-03-01T05:29:12.881Z,100016.09
2024-03-01T05:31:51.533Z,100012.97
2024-03-01T05:34:18.141Z,100014.22
2024-03-01T05:36:44.784Z,100012.63
2024-03-01T05:39:17.680Z,100012.63
2024-03-01T05:41:44.697Z,100015.91
2024-03-01T05:44:12.173Z,100010.25
2024-03-01T05:46:38.705Z,100016.72
2024-03-01T05:49:05.271Z,100013.56
2024-03-01T05:51:31.764Z,100016.38
2024-03-01T05:53:58.574Z,100015.16
2024-03-01T05:56:26.200Z,100017.66
2024-03-01T05:58:52.737Z,100018.91
2024-03-01T06:01:21.712Z,100022.53
2024-03-01T06:03:48.638Z,100013.88
2024-03-01T06:06:19.661Z,100018.28
2024-03-01T06:08:47.830Z,100017.94
2024-03-01T06:11:15.132Z,100016.38
2024-03-01T06:13:41.825Z,100020.47
2024-03-01T06:16:08.622Z,100009.28
2024-03-01T06:18:35.461Z,100012.91
2024-03-01T06:21:03.034Z,100016.66
2024-03-01T06:23:29.799Z,100020.63
2024-03-01T06:25:56.702Z,100010.38
2024-03-01T06:28:24.143Z,100005.19
2024-03-01T06:30:51.044Z,100020.78
2024-03-01T06:33:17.651Z,100026.44
2024-03-01T06:35:44.182Z,100036.47
2024-03-01T06:38:10.783Z,100043.41
2024-03-01T06:40:37.390Z,100033.94
2024-03-01T06:43:04.161Z,100042.75
2024-03-01T06:45:31.009Z,100045.88
2024-03-01T06:47:57.561Z,100050.00
2024-03-01T06:50:24.142Z,100044.59
2024-03-01T06:52:50.642Z,100060.66
2024-03-01T06:55:17.396Z,100046.66
2024-03-01T06:57:44.045Z,100063.81
2024-03-01T07:00:10.804Z,100056.59
2024-03-01T07:02:37.310Z,100052.47
2024-03-01T07:05:04.469Z,100050.59
2024-03-01T07:07:31.814Z,100060.66
2024-03-01T07:09:58.687Z,100054.69
2024-03-01T07:12:26.086Z,100059.09
2024-03-01T07:14:52.589Z,100062.25
2024-03-01T07:17:19.166Z,100073.56
2024-03-01T07:19:45.711Z,100071.19
2024-03-01T07:22:12.308Z,100072.75
2024-03-01T07:24:38.799Z,100072.75
2024-03-01T07:27:05.326Z,100075.13
2024-03-01T07:29:31.840Z,100082.50
2024-03-01T07:32:00.288Z,100083.97
2024-03-01T07:34:28.274Z,100077.47
2024-03-01T07:36:54.894Z,100075.13
2024-03-01T07:39:22.030Z,100075.94
2024-03-01T07:41:48.603Z,100074.19
2024-03-01T07:44:15.277Z,100079.84
2024-03-01T07:46:41.890Z,100073.41
2024-03-01T07:49:09.036Z,100086.31
2024-03-01T07:51:35.598Z,100074.19
2024-03-01T07:54:02.378Z,100069.00
2024-03-01T07:56:29.482Z,100076.56
2024-03-01T07:59:05.039Z,100076.09
2024-03-01T08:01:32.338Z,100072.03
2024-03-01T08:04:02.906Z,100061.94
2024-03-01T08:06:31.970Z,100077.22
2024-03-01T08:08:58.498Z,100065.13
2024-03-01T08:11:43.213Z,100069.19
2024-03-01T08:14:19.756Z,100055.34
2024-03-01T08:16:46.253Z,100062.44
2024-03-01T08:19:14.153Z,100057.25
2024-03-01T08:21:40.653Z,100060.75
2024-03-01T08:24:07.429Z,100050.81
2024-03-01T08:26:34.051Z,100050.97
2024-03-01T08:29:02.353Z,100055.41
2024-03-01T08:31:37.968Z,100048.34
2024-03-01T08:34:11.249Z,100036.19
2024-03-01T08:36:38.838Z,100046.28
2024-03-01T08:39:17.840Z,100060.28
2024-03-01T08:41:50.512Z,100049.78
2024-03-01T08:44:47.718Z,100050.84
2024-03-01T08:47:22.282Z,100040.81
2024-03-01T08:49:57.114Z,100044.72
2024-03-01T08:52:38.921Z,100058.28
2024-03-01T08:55:11.811Z,100057.34
2024-03-01T08:57:39.460Z,100055.78
2024-03-01T09:00:31.017Z,100042.88
2024-03-01T09:02:57.466Z,100050.28
2024-03-01T09:05:24.077Z,100035.03
2024-03-01T09:07:50.862Z,100056.47
2024-03-01T09:10:24.029Z,100054.56
2024-03-01T09:12:50.642Z,100045.44
2024-03-01T09:15:22.392Z,100052.53
2024-03-01T09:17:49.052Z,100047.66
2024-03-01T09:20:22.989Z,100046.72
2024-03-01T09:22:49.718Z,100052.56
2024-03-01T09:25:44.017Z,100049.25
2024-03-01T09:28:12.886Z,100046.72
2024-03-01T09:30:40.033Z,100047.38
2024-03-01T09:33:19.741Z,100049.25
2024-03-01T09:35:51.237Z,100044.38
2024-03-01T09:38:19.515Z,100038.25
2024-03-01T09:40:52.104Z,100034.78
2024-03-01T09:43:51.365Z,100029.41
2024-03-01T09:46:28.433Z,100033.38
2024-03-01T09:49:02.225Z,100024.38
2024-03-01T09:51:46.528Z,100026.59
2024-03-01T09:54:29.806Z,100028.16
2024-03-01T09:57:34.317Z,100023.28
2024-03-01T10:00:09.578Z,100019.81
2024-03-01T10:02:53.088Z,100020.44
2024-03-01T10:05:44.999Z,100014.59
2024-03-01T10:08:19.848Z,100018.09
2024-03-01T10:11:03.604Z,100005.47
2024-03-01T10:13:41.349Z,100014.13
2024-03-01T10:16:14.656Z,100019.63
2024-03-01T10:19:02.205Z,100020.09
2024-03-01T10:22:08.614Z,100038.06
2024-03-01T10:24:46.224Z,100033.81
2024-03-01T10:27:24.338Z,100030.03
2024-03-01T10:30:04.798Z,100027.78
2024-03-01T10:32:56.880Z,100027.63
2024-03-01T10:35:26.643Z,100042.25
2024-03-01T10:38:27.668Z,100029.66
2024-03-01T10:41:06.675Z,100039.09
2024-03-01T10:44:07.304Z,100034.03
2024-03-01T10:46:41.759Z,100039.06
2024-03-01T10:49:27.357Z,100042.53
2024-03-01T10:52:02.947Z,100038.44
2024-03-01T10:54:32.532Z,100040.63
2024-03-01T10:57:00.412Z,100041.84
2024-03-01T10:59:46.551Z,100030.78
2024-03-01T11:02:18.001Z,100046.38
2024-03-01T11:04:53.705Z,100042.13
2024-03-01T11:07:51.168Z,100045.25
2024-03-01T11:10:28.871Z,100031.53
2024-03-01T11:13:14.793Z,100037.66
2024-03-01T11:15:41.463Z,100029.78
2024-03-01T11:18:12.222Z,100018.72
2024-03-01T11:20:50.460Z,100027.66
2024-03-01T11:23:21.853Z,100023.88
2024-03-01T11:25:58.401Z,100017.38
2024-03-01T11:28:26.184Z,100018.59
2024-03-01T11:30:59.553Z,100031.53
2024-03-01T11:33:30.070Z,100031.34
2024-03-01T11:36:24.555Z,100028.66
2024-03-01T11:39:12.006Z,100029.25
2024-03-01T11:41:57.999Z,100035.25
2024-03-01T11:44:30.567Z,100036.13
2024-03-01T11:47:06.320Z,100043.69
2024-03-01T11:49:55.516Z,100037.72
2024-03-01T11:52:37.142Z,100045.69
2024-03-01T11:55:19.310Z,100048.34
2024-03-01T11:58:22.775Z,100051.50
2024-03-01T12:01:32.014Z,100046.91
2024-03-01T12:04:17.007Z,100052.69
2024-03-01T12:07:16.050Z,100046.84
2024-03-01T12:10:04.318Z,100028.97
2024-03-01T12:12:50.121Z,100032.13
2024-03-01T12:15:28.074Z,100039.34
2024-03-01T12:18:15.153Z,100046.72
2024-03-01T12:20:53.868Z,100055.03
2024-03-01T12:23:46.591Z,100056.91
2024-03-01T12:26:17.295Z,100054.19
2024-03-01T12:29:15.534Z,100054.50
2024-03-01T12:32:27.167Z,100054.63
2024-03-01T12:35:05.697Z,100055.47
2024-03-01T12:37:41.799Z,100052.47
2024-03-01T12:40:18.444Z,100048.94
2024-03-01T12:43:18.699Z,100053.38
2024-03-01T12:46:21.056Z,100062.28
2024-03-01T12:49:05.869Z,100054.81
2024-03-01T12:51:41.863Z,100057.75
2024-03-01T12:54:08.660Z,100046.97
2024-03-01T12:56:49.836Z,100066.22
2024-03-01T12:59:40.331Z,100048.16
2024-03-01T13:02:29.960Z,100055.72
2024-03-01T13:05:05.993Z,100054.03
2024-03-01T13:07:35.642Z,100040.78
2024-03-01T13:10:03.497Z,100050.81
2024-03-01T13:12:31.400Z,100045.41
2024-03-01T13:15:21.107Z,100046.28
2024-03-01T13:18:19.792Z,100036.25
2024-03-01T13:21:06.423Z,100037.59
2024-03-01T13:23:58.063Z,100043.13
2024-03-01T13:26:40.980Z,100057.16
2024-03-01T13:29:15.434Z,100057.16
2024-03-01T13:31:57.688Z,100054.38
2024-03-01T13:34:27.023Z,100051.34
2024-03-01T13:37:17.390Z,100060.16
2024-03-01T13:39:58.986Z,100038.66
2024-03-01T13:42:39.258Z,100049.66
2024-03-01T13:45:15.825Z,100050.22
2024-03-01T13:47:49.858Z,100044.50
2024-03-01T13:50:27.495Z,100046.09
2024-03-01T13:52:54.553Z,100051.38
2024-03-01T13:55:21.947Z,100045.47
2024-03-01T13:57:49.671Z,100040.81
2024-03-01T14:00:25.140Z,100047.13
2024-03-01T14:02:53.128Z,100042.47
2024-03-01T14:05:27.062Z,100044.06
2024-03-01T14:07:54.542Z,100042.28
2024-03-01T14:10:22.975Z,100039.72
2024-03-01T14:12:51.624Z,100041.56
2024-03-01T14:15:20.397Z,100040.84
2024-03-01T14:17:47.306Z,100047.13
2024-03-01T14:20:18.424Z,100043.56
2024-03-01T14:22:47.723Z,100036.69
2024-03-01T14:25:18.739Z,100058.78
2024-03-01T14:27:55.618Z,100049.72
2024-03-01T14:30:26.084Z,100049.50
2024-03-01T14:33:12.842Z,100051.84
2024-03-01T14:35:41.008Z,100049.59
2024-03-01T14:38:12.685Z,100043.88
2024-03-01T14:40:39.289Z,100047.59
2024-03-01T14:43:08.338Z,100045.72
2024-03-01T14:45:42.770Z,100055.41
2024-03-01T14:48:10.243Z,100045.56
2024-03-01T14:50:45.029Z,100054.13
2024-03-01T14:53:32.747Z,100042.19
2024-03-01T14:55:59.486Z,100056.78
2024-03-01T14:58:26.427Z,100050.84
2024-03-01T15:00:53.032Z,100047.50
2024-03-01T15:03:21.544Z,100061.81
2024-03-01T15:05:48.150Z,100062.31
2024-03-01T15:08:14.695Z,100057.69
2024-03-01T15:10:43.979Z,100063.16
2024-03-01T15:13:10.854Z,100053.59
2024-03-01T15:15:46.784Z,100046.84
2024-03-01T15:18:13.579Z,100051.31
2024-03-01T15:20:43.053Z,100042.75
2024-03-01T15:23:13.985Z,100042.75
2024-03-01T15:25:41.521Z,100057.56
2024-03-01T15:28:10.633Z,100054.22
2024-03-01T15:30:40.983Z,100045.94
2024-03-01T15:33:08.361Z,100047.75
2024-03-01T15:35:36.771Z,100045.72
2024-03-01T15:38:05.762Z,100047.00
2024-03-01T15:40:37.210Z,100043.13
2024-03-01T15:43:04.894Z,100046.25
2024-03-01T15:45:31.892Z,100048.34
2024-03-01T15:47:58.593Z,100053.03
2024-03-01T15:50:25.282Z,100055.91
2024-03-01T15:52:56.257Z,100061.88
2024-03-01T15:55:23.189Z,100071.25
2024-03-01T15:57:50.956Z,100059.03
2024-03-01T16:00:20.908Z,100058.03
2024-03-01T16:02:48.376Z,100067.09
2024-03-01T16:05:18.310Z,100070.22
2024-03-01T16:07:49.459Z,100052.31
2024-03-01T16:10:22.379Z,100057.00
2024-03-01T16:12:53.998Z,100057.00
2024-03-01T16:15:21.362Z,100051.03
2024-03-01T16:17:50.274Z,100053.16
2024-03-01T16:20:17.284Z,100056.00
2024-03-01T16:22:44.383Z,100056.00
2024-03-01T16:25:16.382Z,100066.16
2024-03-01T16:27:44.134Z,100052.88
2024-03-01T16:30:30.662Z,100060.66
2024-03-01T16:32:58.133Z,100067.44
2024-03-01T16:35:24.618Z,100067.44
2024-03-01T16:37:54.796Z,100060.94
2024-03-01T16:40:22.840Z,100065.06
2024-03-01T16:42:56.485Z,100071.56
2024-03-01T16:45:37.851Z,100076.22
2024-03-01T16:48:15.143Z,100075.94
2024-03-01T16:50:42.008Z,100073.59
2024-03-01T16:53:10.988Z,100086.56
2024-03-01T16:55:51.275Z,100083.72
2024-03-01T16:58:18.183Z,100087.34
2024-03-01T17:00:44.785Z,100094.38
2024-03-01T17:03:36.403Z,100095.38
2024-03-01T17:06:06.822Z,100094.88
2024-03-01T17:08:38.957Z,100101.84
2024-03-01T17:11:08.430Z,100103.94
2024-03-01T17:13:35.140Z,100104.16
2024-03-01T17:16:02.109Z,100107.28
2024-03-01T17:18:30.871Z,100111.44
2024-03-01T17:20:58.071Z,100105.72
2024-03-01T17:23:24.780Z,100107.72
2024-03-01T17:25:52.038Z,100111.16
2024-03-01T17:28:18.640Z,100115.28
2024-03-01T17:30:45.588Z,100114.00
2024-03-01T17:33:12.278Z,100120.72
2024-03-01T17:35:38.855Z,100122.31
2024-03-01T17:38:05.942Z,100116.59
2024-03-01T17:40:32.592Z,100108.25
2024-03-01T17:42:59.655Z,100113.44
2024-03-01T17:45:26.289Z,100119.13
2024-03-01T17:47:52.830Z,100114.25
2024-03-01T17:50:19.488Z,100109.03
2024-03-01T17:52:46.873Z,100119.13
2024-03-01T17:55:13.506Z,100113.44
2024-03-01T17:57:40.238Z,100123.31
2024-03-01T18:00:07.431Z,100113.16
2024-03-01T18:02:34.045Z,100114.97
2024-03-01T18:05:01.152Z,100113.66
2024-03-01T18:07:29.035Z,100113.88
2024-03-01T18:09:57.001Z,100116.75
2024-03-01T18:12:23.864Z,100123.72
2024-03-01T18:14:51.902Z,100122.44
2024-03-01T18:17:18.536Z,100122.94
2024-03-01T18:19:53.636Z,100121.38
2024-03-01T18:22:20.427Z,100116.47
2024-03-01T18:24:47.320Z,100123.44
2024-03-01T18:27:13.873Z,100119.75
2024-03-01T18:29:40.362Z,100127.31
2024-03-01T18:32:07.038Z,100122.59
2024-03-01T18:34:33.600Z,100122.91
2024-03-01T18:37:00.172Z,100129.09
2024-03-01T18:39:26.982Z,100128.31
2024-03-01T18:41:53.502Z,100126.75
2024-03-01T18:44:19.991Z,100125.94
2024-03-01T18:46:46.841Z,100122.03
2024-03-01T18:49:13.443Z,100131.88
2024-03-01T18:51:40.008Z,100136.00
2024-03-01T18:54:08.718Z,100130.28
2024-03-01T18:56:36.022Z,100126.38
2024-03-01T18:59:04.242Z,100132.09
2024-03-01T19:01:30.891Z,100123.25
2024-03-01T19:03:57.505Z,100124.53
2024-03-01T19:06:25.661Z,100125.03
2024-03-01T19:08:52.232Z,100124.75
2024-03-01T19:11:18.768Z,100116.19
2024-03-01T19:13:45.733Z,100117.19
2024-03-01T19:16:12.563Z,100114.03
2024-03-01T19:18:39.581Z,100121.31
2024-03-01T19:21:06.126Z,100116.88
2024-03-01T19:23:33.275Z,100116.13
2024-03-01T19:26:02.963Z,100110.63
2024-03-01T19:28:29.787Z,100116.34
2024-03-01T19:30:56.528Z,100124.63
2024-03-01T19:33:26.341Z,100118.59
2024-03-01T19:35:53.568Z,100111.63
2024-03-01T19:38:21.453Z,100113.69
2024-03-01T19:40:48.109Z,100106.41
2024-03-01T19:43:14.800Z,100116.56
2024-03-01T19:45:42.873Z,100113.91
2024-03-01T19:48:09.472Z,100099.34
2024-03-01T19:50:36.081Z,100106.63
2024-03-01T19:53:02.666Z,100100.94
2024-03-01T19:55:29.432Z,100096.50
2024-03-01T19:57:56.077Z,100095.22
2024-03-01T20:00:22.605Z,100098.84
2024-03-01T20:02:49.225Z,100097.81
2024-03-01T20:05:18.938Z,100111.56
2024-03-01T20:07:45.529Z,100093.38
2024-03-01T20:10:12.660Z,100097.00
2024-03-01T20:12:40.326Z,100094.66
2024-03-01T20:15:07.505Z,100103.19
2024-03-01T20:17:34.224Z,100102.44
2024-03-01T20:20:00.883Z,100102.16
2024-03-01T20:22:28.181Z,100104.50
2024-03-01T20:24:54.731Z,100090.75
2024-03-01T20:27:21.295Z,100098.78
2024-03-01T20:29:48.177Z,100101.34
2024-03-01T20:32:14.786Z,100094.38
2024-03-01T20:34:43.022Z,100087.56
2024-03-01T20:37:10.141Z,100092.50
2024-03-01T20:39:36.751Z,100101.84
2024-03-01T20:42:03.383Z,100098.22
2024-03-01T20:44:29.931Z,100113.75
2024-03-01T20:46:58.207Z,100118.19
2024-03-01T20:49:25.038Z,100108.25
2024-03-01T20:51:51.551Z,100113.47
2024-03-01T20:54:18.125Z,100105.13
2024-03-01T20:56:44.619Z,100111.91
2024-03-01T20:59:11.165Z,100125.66
2024-03-01T21:01:37.770Z,100125.66
2024-03-01T21:04:04.515Z,100124.59
2024-03-01T21:06:34.253Z,100120.97
2024-03-01T21:09:01.085Z,100121.75
2024-03-01T21:11:27.657Z,100123.00
2024-03-01T21:13:54.253Z,100130.31
2024-03-01T21:16:20.809Z,100125.88
2024-03-01T21:18:47.337Z,100124.31
2024-03-01T21:21:13.817Z,100127.16
2024-03-01T21:23:40.322Z,100117.53
2024-03-01T21:26:06.927Z,100122.75
2024-03-01T21:28:33.758Z,100122.47
2024-03-01T21:31:00.470Z,100122.47
2024-03-01T21:33:28.491Z,100128.94
2024-03-01T21:35:55.112Z,100128.16
2024-03-01T21:38:21.970Z,100115.16
2024-03-01T21:40:51.347Z,100112.00
2024-03-01T21:43:17.850Z,100108.84
2024-03-01T21:45:44.476Z,100113.28
2024-03-01T21:48:11.181Z,100107.84
2024-03-01T21:50:37.771Z,100113.00
2024-03-01T21:53:04.673Z,100107.31
2024-03-01T21:55:31.456Z,100107.31
2024-03-01T21:57:58.043Z,100095.63
2024-03-01T22:00:24.615Z,100097.16
2024-03-01T22:02:51.139Z,100107.31
2024-03-01T22:05:18.165Z,100100.03
2024-03-01T22:07:47.330Z,100100.81
2024-03-01T22:10:17.638Z,100091.97
2024-03-01T22:12:44.241Z,100093.53
2024-03-01T22:15:10.962Z,100096.88
2024-03-01T22:17:38.033Z,100085.19
2024-03-01T22:20:08.478Z,100082.03
2024-03-01T22:22:35.538Z,100085.97
2024-03-01T22:25:02.026Z,100088.06
2024-03-01T22:27:28.600Z,100092.19
2024-03-01T22:29:55.072Z,100096.59
2024-03-01T22:32:21.736Z,100093.75
2024-03-01T22:34:48.263Z,100090.59
2024-03-01T22:37:17.845Z,100088.75
2024-03-01T22:39:48.861Z,100087.47
2024-03-01T22:42:17.655Z,100090.31
2024-03-01T22:44:44.129Z,100093.16
2024-03-01T22:47:15.223Z,100088.75
2024-03-01T22:49:43.582Z,100081.97
2024-03-01T22:52:15.180Z,100085.09
2024-03-01T22:54:41.789Z,100078.63
2024-03-01T22:57:13.744Z,100077.06
2024-03-01T23:00:19.954Z,100083.56
2024-03-01T23:02:55.198Z,100079.63
2024-03-01T23:05:51.684Z,100082.19
2024-03-01T23:08:24.187Z,100077.28
2024-03-01T23:10:52.023Z,100064.50
2024-03-01T23:13:19.763Z,100074.91
2024-03-01T23:15:50.188Z,100066.34
2024-03-01T23:18:17.431Z,100064.22
2024-03-01T23:20:44.475Z,100074.91
2024-03-01T23:23:11.820Z,100081.09
2024-03-01T23:25:40.007Z,100074.63
2024-03-01T23:28:07.629Z,100071.97
2024-03-01T23:30:36.453Z,100073.53
2024-03-01T23:33:04.608Z,100085.72
2024-03-01T23:35:32.090Z,100072.78
2024-03-01T23:37:59.100Z,100068.06
2024-03-01T23:40:26.075Z,100063.13
2024-03-01T23:42:52.713Z,100072.50
2024-03-01T23:45:19.478Z,100063.94
2024-03-01T23:47:47.122Z,100062.09
2024-03-01T23:50:14.635Z,100060.78
2024-03-01T23:52:42.253Z,100063.63
2024-03-01T23:55:10.863Z,100059.41
2024-03-01T23:57:38.211Z,100061.78
